createdAt,value
2022-08-05T00:00:17.772Z,44.22
2022-08-05T00:02:51.778Z,43.59
2022-08-05T00:05:27.164Z,43.80
2022-08-05T00:08:19.740Z,43.72
2022-08-05T00:11:00.694Z,43.74
2022-08-05T00:13:38.487Z,43.79
2022-08-05T00:16:09.205Z,44.31
2022-08-05T00:18:42.412Z,44.06
2022-08-05T00:21:14.459Z,44.08
2022-08-05T00:23:45.813Z,43.82
2022-08-05T00:26:16.686Z,43.60
2022-08-05T00:28:45.869Z,43.73
2022-08-05T00:31:14.477Z,43.64
2022-08-05T00:34:53.691Z,43.87
2022-08-05T00:37:11.169Z,44.09
2022-08-05T00:39:21.141Z,43.71
2022-08-05T00:41:55.578Z,43.25
2022-08-05T00:44:30.874Z,43.42
2022-08-05T00:47:02.013Z,43.35
2022-08-05T00:49:51.289Z,43.44
2022-08-05T00:52:28.573Z,43.58
2022-08-05T00:54:57.219Z,43.40
2022-08-05T00:57:38.453Z,43.76
2022-08-05T01:00:15.211Z,43.66
2022-08-05T01:02:46.247Z,43.53
2022-08-05T01:05:15.677Z,43.76
2022-08-05T01:08:41.838Z,43.11
2022-08-05T01:10:38.004Z,43.27
2022-08-05T01:13:22.286Z,43.45
2022-08-05T01:16:02.970Z,43.80
2022-08-05T01:18:39.113Z,44.22
2022-08-05T01:21:22.759Z,44.21
2022-08-05T01:24:14.195Z,44.01
2022-08-05T01:26:56.186Z,44.43
2022-08-05T01:29:31.558Z,44.70
2022-08-05T01:32:12.576Z,44.48
2022-08-05T01:34:50.864Z,44.74
2022-08-05T01:37:25.533Z,44.69
2022-08-05T01:39:59.176Z,44.96
2022-08-05T01:42:29.037Z,45.98
2022-08-05T01:45:02.451Z,46.08
2022-08-05T01:47:39.353Z,46.60
2022-08-05T01:50:15.421Z,46.74
2022-08-05T01:52:49.624Z,46.60
2022-08-05T01:55:21.321Z,47.12
2022-08-05T01:58:12.358Z,47.15
2022-08-05T02:00:45.210Z,47.12
2022-08-05T02:03:29.053Z,47.45
2022-08-05T02:06:37.975Z,47.75
2022-08-05T02:08:55.189Z,47.78
2022-08-05T02:11:33.129Z,47.72
2022-08-05T02:14:13.151Z,47.80
2022-08-05T02:16:52.877Z,47.86
2022-08-05T02:19:34.176Z,48.68
2022-08-05T02:22:17.426Z,48.63
2022-08-05T02:25:00.098Z,48.34
2022-08-05T02:27:57.858Z,48.81
2022-08-05T02:30:19.205Z,48.87
2022-08-05T02:32:52.391Z,48.80
2022-08-05T02:35:33.000Z,49.00
2022-08-05T02:38:03.204Z,48.56
2022-08-05T02:40:33.869Z,48.42
2022-08-05T02:43:03.212Z,48.46
2022-08-05T02:45:51.603Z,48.12
2022-08-05T02:48:29.120Z,48.58
2022-08-05T02:51:01.113Z,48.03
2022-08-05T02:53:35.891Z,48.40
2022-08-05T02:56:09.650Z,48.34
2022-08-05T02:58:45.022Z,48.27
2022-08-05T03:01:24.911Z,48.31
2022-08-05T03:04:03.012Z,48.56
2022-08-05T03:06:54.300Z,48.83
2022-08-05T03:09:27.103Z,48.67
2022-08-05T03:12:07.863Z,48.07
2022-08-05T03:14:45.756Z,48.69
2022-08-05T03:17:14.415Z,49.01
2022-08-05T03:19:45.549Z,49.19
2022-08-05T03:22:16.360Z,48.83
2022-08-05T03:24:50.913Z,49.29
2022-08-05T03:27:20.159Z,49.22
2022-08-05T03:30:08.133Z,49.34
2022-08-05T03:32:37.080Z,49.07
2022-08-05T03:35:08.931Z,48.84
2022-08-05T03:37:46.618Z,48.61
2022-08-05T03:40:24.150Z,49.31
2022-08-05T03:42:59.518Z,48.71
2022-08-05T03:45:55.103Z,48.89
2022-08-05T03:48:29.250Z,49.15
2022-08-05T03:52:37.323Z,48.88
2022-08-05T03:55:00.350Z,48.98
2022-08-05T03:56:50.920Z,49.62
2022-08-05T03:59:25.215Z,49.23
2022-08-05T04:01:59.005Z,49.62
2022-08-05T04:04:29.049Z,49.69
2022-08-05T04:07:00.256Z,49.95
2022-08-05T04:09:30.093Z,49.99
2022-08-05T04:12:05.219Z,50.15
2022-08-05T04:14:52.547Z,50.21
2022-08-05T04:17:20.649Z,50.75
2022-08-05T04:19:54.359Z,50.12
2022-08-05T04:22:24.193Z,50.86
2022-08-05T04:24:54.760Z,50.66
2022-08-05T04:27:42.056Z,50.57
2022-08-05T04:30:12.527Z,50.63
2022-08-05T04:32:42.238Z,50.91
2022-08-05T04:35:17.638Z,51.13
2022-08-05T04:38:02.679Z,50.72
2022-08-05T04:40:36.248Z,50.86
2022-08-05T04:43:05.446Z,51.46
2022-08-05T04:45:48.607Z,50.74
2022-08-05T04:48:27.095Z,51.08
2022-08-05T04:51:03.304Z,50.48
2022-08-05T04:53:39.636Z,50.40
2022-08-05T04:56:33.049Z,50.58
2022-08-05T04:58:57.463Z,50.22
2022-08-05T05:02:05.550Z,50.10
2022-08-05T05:04:14.132Z,50.00
2022-08-05T05:06:49.371Z,50.57
2022-08-05T05:09:27.069Z,50.41
2022-08-05T05:12:00.291Z,50.18
2022-08-05T05:14:31.950Z,50.58
2022-08-05T05:17:00.633Z,50.24
2022-08-05T05:19:36.482Z,50.17
2022-08-05T05:22:24.668Z,50.11
2022-08-05T05:24:59.968Z,50.28
2022-08-05T05:27:44.636Z,49.91
2022-08-05T05:30:30.854Z,50.56
2022-08-05T05:33:08.964Z,50.71
2022-08-05T05:35:45.043Z,51.15
2022-08-05T05:38:14.271Z,50.85
2022-08-05T05:40:50.120Z,51.42
2022-08-05T05:43:27.723Z,51.33
2022-08-05T05:46:15.883Z,51.30
2022-08-05T05:48:48.272Z,51.44
2022-08-05T05:51:21.604Z,51.34
2022-08-05T05:53:57.428Z,51.74
2022-08-05T05:56:32.507Z,51.80
2022-08-05T05:59:05.599Z,51.72
2022-08-05T06:01:40.809Z,52.03
2022-08-05T06:04:26.057Z,51.96
2022-08-05T06:06:54.776Z,52.11
2022-08-05T06:09:27.475Z,51.93
2022-08-05T06:12:12.589Z,51.54
2022-08-05T06:14:45.029Z,51.39
2022-08-05T06:17:22.608Z,51.74
2022-08-05T06:19:56.796Z,52.21
2022-08-05T06:22:29.460Z,51.51
2022-08-05T06:24:58.314Z,51.42
2022-08-05T06:28:10.904Z,51.51
2022-08-05T06:30:20.909Z,51.42
2022-08-05T06:32:50.760Z,50.49
2022-08-05T06:36:03.831Z,50.16
2022-08-05T06:38:11.085Z,50.15
2022-08-05T06:40:42.034Z,49.84
2022-08-05T06:43:57.742Z,49.95
2022-08-05T06:46:06.879Z,49.77
2022-08-05T06:48:55.577Z,49.55
2022-08-05T06:51:29.716Z,48.95
2022-08-05T06:53:59.938Z,48.74
2022-08-05T06:56:28.424Z,48.46
2022-08-05T06:58:58.065Z,47.95
2022-08-05T07:01:27.656Z,47.82
2022-08-05T07:04:02.277Z,47.76
2022-08-05T07:06:32.246Z,48.15
2022-08-05T07:09:03.811Z,47.01
2022-08-05T07:11:36.970Z,47.33
2022-08-05T07:14:29.406Z,47.43
2022-08-05T07:18:01.164Z,47.13
2022-08-05T07:20:31.583Z,47.28
2022-08-05T07:22:39.428Z,47.21
2022-08-05T07:25:23.686Z,47.77
2022-08-05T07:28:07.241Z,46.32
2022-08-05T07:30:41.134Z,46.09
2022-08-05T07:33:16.226Z,46.14
2022-08-05T07:36:01.994Z,46.51
2022-08-05T07:38:42.588Z,45.98
2022-08-05T07:42:08.288Z,45.75
2022-08-05T07:44:02.828Z,45.14
2022-08-05T07:46:37.441Z,44.79
2022-08-05T07:49:07.946Z,44.50
2022-08-05T07:51:40.709Z,44.40
2022-08-05T07:54:11.461Z,43.87
2022-08-05T07:57:01.507Z,44.59
2022-08-05T07:59:38.655Z,44.71
2022-08-05T08:02:16.996Z,44.63
2022-08-05T08:04:48.220Z,43.87
2022-08-05T08:07:22.253Z,43.54
2022-08-05T08:09:55.165Z,43.18
2022-08-05T08:12:36.902Z,42.79
2022-08-05T08:15:13.981Z,43.29
2022-08-05T08:17:49.876Z,43.19
2022-08-05T08:20:43.665Z,42.26
2022-08-05T08:24:00.167Z,42.88
2022-08-05T08:25:59.078Z,42.44
2022-08-05T08:28:36.547Z,41.94
2022-08-05T08:31:06.193Z,41.43
2022-08-05T08:33:37.928Z,41.11
2022-08-05T08:38:57.048Z,41.82
2022-08-05T08:41:51.857Z,42.07
2022-08-05T08:45:19.601Z,41.95
2022-08-05T08:47:47.724Z,41.06
2022-08-05T08:50:06.025Z,41.00
2022-08-05T08:52:51.786Z,40.50
2022-08-05T08:55:31.869Z,40.58
2022-08-05T08:58:12.883Z,40.76
2022-08-05T09:00:42.789Z,41.15
2022-08-05T09:03:11.568Z,40.78
2022-08-05T09:06:08.518Z,40.07
2022-08-05T09:08:30.242Z,39.01
2022-08-05T09:10:58.835Z,40.47
2022-08-05T09:13:31.456Z,38.35
2022-08-05T09:16:01.097Z,38.38
2022-08-05T09:18:30.263Z,38.32
2022-08-05T09:21:00.099Z,37.62
2022-08-05T09:23:37.286Z,37.68
2022-08-05T09:26:15.895Z,36.93
2022-08-05T09:28:49.789Z,37.65
2022-08-05T09:31:43.729Z,36.03
2022-08-05T09:34:09.853Z,35.54
2022-08-05T09:36:55.873Z,35.49
2022-08-05T09:39:41.859Z,35.62
2022-08-05T09:42:28.120Z,35.70
2022-08-05T09:45:17.923Z,35.70
2022-08-05T09:47:55.827Z,35.26
2022-08-05T09:50:37.538Z,35.81
2022-08-05T09:53:22.691Z,35.33
2022-08-05T09:56:05.042Z,35.85
2022-08-05T09:58:41.898Z,36.01
2022-08-05T10:01:14.907Z,36.22
2022-08-05T10:03:59.106Z,35.22
2022-08-05T10:06:28.614Z,35.07
2022-08-05T10:09:27.568Z,35.14
2022-08-05T10:12:18.630Z,35.38
2022-08-05T10:15:16.182Z,34.43
2022-08-05T10:17:54.479Z,34.36
2022-08-05T10:20:26.947Z,34.06
2022-08-05T10:22:57.099Z,33.66
2022-08-05T10:25:28.506Z,34.03
2022-08-05T10:28:13.001Z,34.72
2022-08-05T10:32:48.641Z,34.24
2022-08-05T10:33:36.175Z,35.26
2022-08-05T10:36:05.789Z,34.38
2022-08-05T10:38:36.922Z,34.92
2022-08-05T10:41:14.604Z,34.54
2022-08-05T10:43:59.226Z,34.84
2022-08-05T10:46:44.829Z,34.10
2022-08-05T10:49:16.533Z,34.17
2022-08-05T10:51:58.295Z,35.90
2022-08-05T10:54:56.498Z,33.44
2022-08-05T10:57:32.348Z,33.51
2022-08-05T11:00:23.261Z,32.87
2022-08-05T11:03:23.239Z,33.18
2022-08-05T11:06:05.969Z,33.22
2022-08-05T11:08:39.172Z,32.92
2022-08-05T11:11:44.743Z,33.44
2022-08-05T11:14:57.675Z,34.72
2022-08-05T11:18:09.484Z,33.52
2022-08-05T11:20:44.153Z,32.68
2022-08-05T11:24:05.260Z,31.83
2022-08-05T11:26:33.528Z,32.37
2022-08-05T11:29:11.646Z,31.95
2022-08-05T11:31:57.342Z,32.11
2022-08-05T11:34:51.032Z,31.08
2022-08-05T11:38:30.567Z,30.90
2022-08-05T11:41:03.569Z,31.37
2022-08-05T11:44:04.513Z,30.76
2022-08-05T11:46:35.963Z,30.53
2022-08-05T11:49:08.039Z,30.12
2022-08-05T11:51:44.052Z,30.17
2022-08-05T11:54:33.400Z,30.83
2022-08-05T11:57:07.576Z,31.22
2022-08-05T11:59:41.363Z,31.15
2022-08-05T12:02:30.335Z,30.16
2022-08-05T12:05:07.385Z,30.32
2022-08-05T12:08:03.757Z,29.48
2022-08-05T12:10:42.950Z,29.93
2022-08-05T12:13:13.951Z,28.79
2022-08-05T12:15:49.459Z,29.61
2022-08-05T12:18:32.964Z,29.14
2022-08-05T12:21:13.052Z,28.52
2022-08-05T12:23:53.731Z,27.84
2022-08-05T12:26:23.816Z,28.10
2022-08-05T12:28:55.000Z,29.28
2022-08-05T12:31:42.418Z,29.33
2022-08-05T12:34:14.679Z,28.49
2022-08-05T12:36:53.503Z,27.50
2022-08-05T12:39:22.217Z,27.49
2022-08-05T12:41:58.034Z,27.16
2022-08-05T12:44:33.837Z,27.55
2022-08-05T12:47:04.678Z,27.77
2022-08-05T12:50:03.968Z,27.74
2022-08-05T12:52:39.190Z,28.68
2022-08-05T12:55:26.411Z,27.88
2022-08-05T12:58:51.067Z,28.27
2022-08-05T13:02:02.060Z,28.11
2022-08-05T13:03:42.272Z,29.33
2022-08-05T13:06:16.012Z,29.34
2022-08-05T13:08:51.524Z,29.38
2022-08-05T13:11:47.006Z,28.53
2022-08-05T13:14:24.808Z,28.44
2022-08-05T13:17:10.280Z,28.14
2022-08-05T13:19:51.785Z,28.84
2022-08-05T13:22:28.185Z,29.72
2022-08-05T13:25:08.076Z,29.95
2022-08-05T13:27:50.394Z,30.20
2022-08-05T13:30:35.644Z,30.66
2022-08-05T13:33:07.584Z,30.75
2022-08-05T13:36:02.030Z,30.05
2022-08-05T13:38:34.257Z,30.02
2022-08-05T13:41:08.210Z,30.31
2022-08-05T13:43:44.528Z,30.84
2022-08-05T13:46:37.656Z,29.58
2022-08-05T13:49:10.034Z,30.28
2022-08-05T13:51:46.035Z,30.32
2022-08-05T13:54:16.454Z,30.64
2022-08-05T13:56:51.462Z,30.86
2022-08-05T13:59:23.972Z,31.64
2022-08-05T14:01:58.016Z,30.26
2022-08-05T14:04:49.933Z,29.72
2022-08-05T14:07:56.360Z,30.29
2022-08-05T14:10:10.469Z,30.64
2022-08-05T14:12:42.871Z,31.09
2022-08-05T14:16:08.955Z,31.15
2022-08-05T14:18:01.357Z,31.34
2022-08-05T14:20:30.790Z,31.62
2022-08-05T14:22:59.226Z,30.83
2022-08-05T14:25:30.127Z,30.72
2022-08-05T14:28:06.440Z,30.80
2022-08-05T14:30:35.168Z,31.13
2022-08-05T14:33:04.788Z,31.38
2022-08-05T14:35:37.492Z,31.53
2022-08-05T14:38:31.571Z,31.58
2022-08-05T14:41:05.805Z,31.13
2022-08-05T14:43:59.743Z,31.05
2022-08-05T14:46:28.819Z,31.05
2022-08-05T14:48:59.024Z,30.15
2022-08-05T14:51:31.842Z,30.53
2022-08-05T14:54:27.690Z,30.33
2022-08-05T14:56:54.802Z,29.75
2022-08-05T14:59:24.972Z,29.75
2022-08-05T15:01:58.211Z,29.85
2022-08-05T15:04:29.006Z,30.01
2022-08-05T15:06:57.643Z,30.22
2022-08-05T15:09:52.462Z,29.92
2022-08-05T15:12:16.699Z,29.45
2022-08-05T15:14:50.257Z,29.77
2022-08-05T15:17:47.753Z,29.85
2022-08-05T15:20:18.872Z,29.21
2022-08-05T15:22:54.550Z,29.21
2022-08-05T15:25:50.821Z,29.80
2022-08-05T15:28:16.227Z,30.64
2022-08-05T15:30:47.013Z,29.71
2022-08-05T15:34:04.126Z,29.90
2022-08-05T15:36:16.734Z,30.31
2022-08-05T15:40:41.028Z,29.92
2022-08-05T15:41:57.505Z,30.17
2022-08-05T15:44:29.979Z,30.12
2022-08-05T15:47:03.748Z,29.64
2022-08-05T15:49:52.021Z,29.76
2022-08-05T15:52:29.290Z,29.65
2022-08-05T15:55:15.718Z,30.43
2022-08-05T15:57:45.940Z,29.83
2022-08-05T16:00:25.984Z,30.61
2022-08-05T16:03:02.572Z,30.41
2022-08-05T16:05:31.298Z,30.18
2022-08-05T16:08:01.546Z,30.24
2022-08-05T16:10:29.775Z,29.93
2022-08-05T16:12:59.399Z,30.23
2022-08-05T16:15:32.489Z,30.27
2022-08-05T16:18:09.085Z,30.46
2022-08-05T16:20:37.550Z,30.52
2022-08-05T16:23:08.411Z,30.21
2022-08-05T16:25:37.422Z,29.95
2022-08-05T16:28:09.803Z,30.24
2022-08-05T16:30:39.280Z,30.15
2022-08-05T16:33:11.466Z,29.79
2022-08-05T16:35:42.436Z,29.40
2022-08-05T16:38:18.644Z,29.71
2022-08-05T16:41:00.731Z,30.07
2022-08-05T16:43:31.553Z,29.99
2022-08-05T16:46:23.846Z,29.10
2022-08-05T16:48:53.096Z,28.32
2022-08-05T16:51:24.358Z,29.32
2022-08-05T16:54:03.296Z,29.26
2022-08-05T16:56:36.290Z,28.92
2022-08-05T16:59:09.195Z,28.61
2022-08-05T17:01:53.957Z,28.00
2022-08-05T17:04:28.054Z,27.58
2022-08-05T17:07:03.437Z,27.70
2022-08-05T17:09:57.495Z,27.02
2022-08-05T17:12:51.802Z,26.17
2022-08-05T17:15:19.542Z,25.50
2022-08-05T17:17:54.998Z,25.47
2022-08-05T17:20:28.918Z,25.62
2022-08-05T17:22:57.551Z,26.75
2022-08-05T17:25:33.996Z,25.74
2022-08-05T17:28:09.253Z,27.73
2022-08-05T17:30:50.744Z,26.08
2022-08-05T17:33:23.177Z,25.15
2022-08-05T17:36:08.655Z,25.33
2022-08-05T17:38:39.970Z,26.33
2022-08-05T17:42:16.692Z,26.09
2022-08-05T17:44:08.627Z,26.60
2022-08-05T17:46:40.857Z,26.29
2022-08-05T17:49:16.566Z,26.99
2022-08-05T17:51:47.807Z,27.50
2022-08-05T17:54:23.240Z,27.69
2022-08-05T17:56:52.284Z,27.59
2022-08-05T17:59:21.126Z,27.49
2022-08-05T18:01:55.977Z,27.24
2022-08-05T18:04:27.833Z,27.39
2022-08-05T18:07:00.323Z,27.79
2022-08-05T18:10:00.480Z,27.34
2022-08-05T18:12:24.246Z,28.39
2022-08-05T18:14:54.415Z,28.00
2022-08-05T18:17:58.994Z,28.34
2022-08-05T18:20:19.102Z,28.59
2022-08-05T18:22:57.345Z,29.14
2022-08-05T18:25:32.778Z,29.55
2022-08-05T18:28:05.118Z,29.54
2022-08-05T18:30:39.148Z,29.76
2022-08-05T18:33:13.508Z,29.57
2022-08-05T18:36:01.351Z,29.11
2022-08-05T18:38:35.948Z,29.75
2022-08-05T18:41:56.360Z,29.87
2022-08-05T18:44:06.276Z,29.90
2022-08-05T18:46:36.493Z,30.09
2022-08-05T18:49:20.063Z,30.10
2022-08-05T18:52:08.567Z,30.24
2022-08-05T18:54:46.105Z,30.50
2022-08-05T18:57:24.082Z,30.54
2022-08-05T19:00:13.240Z,30.86
2022-08-05T19:02:50.958Z,31.07
2022-08-05T19:06:11.671Z,30.77
2022-08-05T19:08:13.772Z,30.88
2022-08-05T19:10:52.103Z,30.74
2022-08-05T19:13:25.932Z,30.96
2022-08-05T19:16:03.756Z,31.25
2022-08-05T19:18:33.725Z,31.77
2022-08-05T19:21:02.924Z,31.83
2022-08-05T19:24:06.054Z,31.90
2022-08-05T19:26:29.848Z,32.07
2022-08-05T19:29:02.779Z,31.93
2022-08-05T19:31:44.995Z,32.23
2022-08-05T19:34:22.854Z,32.51
2022-08-05T19:36:54.709Z,32.49
2022-08-05T19:39:28.323Z,32.37
2022-08-05T19:42:07.220Z,32.67
2022-08-05T19:44:45.159Z,32.97
2022-08-05T19:47:16.349Z,32.29
2022-08-05T19:49:46.100Z,32.83
2022-08-05T19:52:30.300Z,33.96
2022-08-05T19:56:11.364Z,33.50
2022-08-05T19:58:19.781Z,34.19
2022-08-05T20:00:51.832Z,34.83
2022-08-05T20:03:20.924Z,35.96
2022-08-05T20:05:56.830Z,36.30
2022-08-05T20:08:26.760Z,36.81
2022-08-05T20:10:55.711Z,36.22
2022-08-05T20:13:30.365Z,36.64
2022-08-05T20:16:14.119Z,36.47
2022-08-05T20:18:55.348Z,37.26
2022-08-05T20:21:29.017Z,37.38
2022-08-05T20:23:59.778Z,37.22
2022-08-05T20:26:28.850Z,37.62
2022-08-05T20:29:00.719Z,37.63
2022-08-05T20:31:42.094Z,37.53
2022-08-05T20:34:21.539Z,37.75
2022-08-05T20:36:55.275Z,37.52
2022-08-05T20:39:24.379Z,37.88
2022-08-05T20:42:05.930Z,37.42
2022-08-05T20:44:37.801Z,37.84
2022-08-05T20:47:08.008Z,37.25
2022-08-05T20:49:40.172Z,37.73
2022-08-05T20:52:10.560Z,37.55
2022-08-05T20:54:58.871Z,38.15
2022-08-05T20:57:43.511Z,38.15
2022-08-05T21:00:34.951Z,38.12
2022-08-05T21:03:07.796Z,37.77
2022-08-05T21:06:31.518Z,38.72
2022-08-05T21:09:01.450Z,38.70
2022-08-05T21:12:07.020Z,38.08
2022-08-05T21:14:18.064Z,38.45
2022-08-05T21:16:48.912Z,38.46
2022-08-05T21:19:23.936Z,38.50
2022-08-05T21:21:53.485Z,38.43
2022-08-05T21:24:23.564Z,38.85
2022-08-05T21:26:58.299Z,39.04
2022-08-05T21:29:31.758Z,38.97
2022-08-05T21:32:05.206Z,38.49
2022-08-05T21:34:35.582Z,38.94
2022-08-05T21:37:04.940Z,38.93
2022-08-05T21:39:34.468Z,39.51
2022-08-05T21:42:03.119Z,39.81
2022-08-05T21:44:31.782Z,39.08
2022-08-05T21:47:00.341Z,39.36
2022-08-05T21:49:48.030Z,39.46
2022-08-05T21:52:27.599Z,39.21
2022-08-05T21:54:57.742Z,39.91
2022-08-05T21:57:34.917Z,39.86
2022-08-05T22:00:06.303Z,40.23
2022-08-05T22:02:42.498Z,40.07
2022-08-05T22:05:13.762Z,40.23
2022-08-05T22:07:58.364Z,40.72
2022-08-05T22:10:29.033Z,40.73
2022-08-05T22:12:59.127Z,41.23
2022-08-05T22:16:00.686Z,40.75
2022-08-05T22:18:33.268Z,41.41
2022-08-05T22:21:04.787Z,41.42
2022-08-05T22:24:13.006Z,40.85
2022-08-05T22:26:59.108Z,41.90
2022-08-05T22:29:30.557Z,41.57
2022-08-05T22:32:03.207Z,40.96
2022-08-05T22:34:32.772Z,41.55
2022-08-05T22:37:03.886Z,41.40
2022-08-05T22:39:34.462Z,41.52
2022-08-05T22:42:11.798Z,41.49
2022-08-05T22:44:42.620Z,41.20
2022-08-05T22:47:29.423Z,42.24
2022-08-05T22:50:19.629Z,42.03
2022-08-05T22:52:49.349Z,42.82
2022-08-05T22:55:19.167Z,42.58
2022-08-05T22:57:49.043Z,41.72
2022-08-05T23:00:21.001Z,43.05
2022-08-05T23:02:52.405Z,42.27
2022-08-05T23:05:22.243Z,42.71
2022-08-05T23:07:52.245Z,42.98
2022-08-05T23:10:23.506Z,43.25
2022-08-05T23:12:57.249Z,43.19
2022-08-05T23:15:29.949Z,43.44
2022-08-05T23:18:06.039Z,43.83
2022-08-05T23:20:40.027Z,43.77
2022-08-05T23:23:12.605Z,43.75
2022-08-05T23:25:53.469Z,43.87
2022-08-05T23:28:27.761Z,43.87
2022-08-05T23:31:15.839Z,44.33
2022-08-05T23:34:03.880Z,43.93
2022-08-05T23:36:40.018Z,43.95
2022-08-05T23:39:17.612Z,43.84
2022-08-05T23:42:00.996Z,44.61
2022-08-05T23:44:31.262Z,44.64
2022-08-05T23:47:02.310Z,44.68
2022-08-05T23:49:43.442Z,44.54
2022-08-05T23:52:30.808Z,45.01
2022-08-05T23:55:05.503Z,44.95
2022-08-05T23:57:35.837Z,45.66
